Time;durP1;ratioP1;P1;durP2;ratioP2;P2;SDS_P1;SDS_P2;PMS_P1;PMS_P2;Temp;Humidity;BMP_temperature;BMP_pressure;BME280_temperature;BME280_humidity;BME280_pressure;Samples;Min_cycle;Max_cycle;Signal;HPM_P1;HPM_P2
2021/11/26 00:01:53;;;;;;;39.80;15.02;;;4.60;99.90;;;2.90;100.00;100384.06;2571216;30;137172;-38
2021/11/26 00:04:20;;;;;;;39.05;14.40;;;4.60;99.90;;;2.88;100.00;100381.56;2569371;30;137887;-37
2021/11/26 00:06:48;;;;;;;37.13;14.27;;;4.60;99.90;;;2.87;100.00;100376.34;2568436;30;138197;-38
2021/11/26 00:09:15;;;;;;;34.72;14.20;;;4.60;99.90;;;2.86;100.00;100380.91;2569173;30;138532;-38
2021/11/26 00:11:43;;;;;;;38.15;15.07;;;4.60;99.90;;;2.92;100.00;100365.91;2565913;30;136909;-38
2021/11/26 00:14:23;;;;;;;40.17;15.27;;;4.60;99.90;;;2.96;100.00;100369.06;2570685;30;137865;-38
2021/11/26 00:16:57;;;;;;;39.45;14.63;;;4.70;99.90;;;2.92;100.00;100362.34;2569813;30;137005;-39
2021/11/26 00:19:26;;;;;;;38.90;14.88;;;4.60;99.90;;;2.92;100.00;100356.97;2569724;30;137113;-38
2021/11/26 00:21:54;;;;;;;43.97;15.68;;;4.60;99.90;;;2.95;100.00;100348.53;2570702;30;136827;-38
2021/11/26 00:24:22;;;;;;;40.53;15.70;;;4.60;99.90;;;2.93;100.00;100354.09;2569443;30;139027;-37
2021/11/26 00:26:50;;;;;;;;;;;4.60;99.90;;;2.89;100.00;100341.97;2569620;30;137307;-38
2021/11/26 00:29:18;;;;;;;48.63;16.15;;;4.60;99.90;;;2.90;100.00;100348.22;2568895;30;140712;-38
2021/11/26 00:31:45;;;;;;;41.78;16.85;;;4.60;99.90;;;2.86;100.00;100350.41;2569157;30;137575;-38
2021/11/26 00:34:14;;;;;;;46.78;16.30;;;4.60;99.90;;;2.88;100.00;100340.28;2570336;30;139098;-38
2021/11/26 00:36:41;;;;;;;40.97;15.82;;;4.60;99.90;;;2.87;100.00;100339.47;2569139;30;137222;-38
2021/11/26 00:39:09;;;;;;;45.20;16.58;;;4.60;99.90;;;2.88;100.00;100329.50;2570027;30;137861;-38
2021/11/26 00:41:37;;;;;;;52.42;17.80;;;4.60;99.90;;;2.93;100.00;100327.16;2571773;30;137030;-38
2021/11/26 00:44:05;;;;;;;;;;;4.60;99.90;;;2.90;100.00;100327.47;2571440;30;138312;-38
2021/11/26 00:46:33;;;;;;;42.08;16.23;;;4.60;99.90;;;2.86;100.00;100318.06;2570197;30;137169;-38
2021/11/26 00:49:01;;;;;;;;;;;4.60;99.90;;;2.84;100.00;100312.88;2569927;30;137842;-38
2021/11/26 00:51:30;;;;;;;39.80;14.45;;;4.60;99.90;;;2.83;100.00;100308.50;2570246;30;137757;-38
2021/11/26 00:54:00;;;;;;;47.60;17.88;;;4.60;99.90;;;2.85;100.00;100298.38;2568128;30;137750;-38
2021/11/26 00:56:27;;;;;;;47.33;17.67;;;4.60;99.90;;;2.85;100.00;100295.69;2569821;30;137736;-38
2021/11/26 00:58:55;;;;;;;47.50;17.02;;;4.60;99.90;;;2.88;100.00;100297.19;2567950;30;137953;-38
2021/11/26 01:01:23;;;;;;;42.92;17.33;;;4.60;99.90;;;2.91;100.00;100285.22;2569593;30;137624;-38
2021/11/26 01:03:53;;;;;;;50.17;17.65;;;4.60;99.90;;;2.89;100.00;100288.06;2570015;30;137130;-38
2021/11/26 01:06:21;;;;;;;45.03;17.92;;;4.60;99.90;;;2.91;100.00;100288.75;2570353;30;137620;-38
2021/11/26 01:08:49;;;;;;;46.97;17.88;;;4.60;99.90;;;2.87;100.00;100280.19;2565738;30;138071;-38
2021/11/26 01:11:17;;;;;;;49.13;18.23;;;4.60;99.90;;;2.87;100.00;100277.50;2568520;30;137542;-38
2021/11/26 01:13:46;;;;;;;41.92;17.95;;;4.60;99.90;;;2.91;100.00;100269.88;2568734;30;138434;-38
2021/11/26 01:16:14;;;;;;;45.35;17.27;;;4.60;99.90;;;2.88;100.00;100265.69;2570220;30;137585;-38
2021/11/26 01:18:42;;;;;;;42.33;16.77;;;4.60;99.90;;;2.87;100.00;100264.00;2568496;30;139238;-38
2021/11/26 01:21:10;;;;;;;50.65;17.35;;;4.60;99.90;;;2.90;100.00;100256.59;2568154;30;137150;-38
2021/11/26 01:23:40;;;;;;;50.78;18.23;;;4.60;99.90;;;2.93;100.00;100257.09;2570687;30;138430;-38
2021/11/26 01:26:08;;;;;;;46.67;17.77;;;4.60;99.90;;;2.91;100.00;100248.31;2567093;30;136965;-38
2021/11/26 01:28:38;;;;;;;43.55;18.20;;;4.60;99.90;;;2.86;100.00;100239.94;2568628;30;138693;-38
2021/11/26 01:31:06;;;;;;;47.08;18.70;;;4.60;99.90;;;2.83;100.00;100237.59;2570541;30;137819;-38
2021/11/26 01:33:34;;;;;;;46.55;16.83;;;4.60;99.90;;;2.78;100.00;100223.81;2568479;30;138822;-38
2021/11/26 01:36:07;;;;;;;44.45;18.15;;;4.50;99.90;;;2.84;100.00;100229.34;2569598;30;137641;-38
2021/11/26 01:38:35;;;;;;;48.00;18.35;;;4.60;99.90;;;2.80;100.00;100225.31;2567968;30;139061;-38
2021/11/26 01:41:08;;;;;;;43.78;17.90;;;4.60;99.90;;;2.79;100.00;100230.88;2571276;30;137007;-38
2021/11/26 01:43:36;;;;;;;44.42;17.15;;;4.50;99.90;;;2.80;100.00;100225.31;2570061;30;139111;-38
2021/11/26 01:46:09;;;;;;;45.53;17.75;;;4.50;99.90;;;2.78;100.00;100221.13;2569803;30;138362;-38
2021/11/26 01:48:42;;;;;;;43.63;17.15;;;4.50;99.90;;;2.82;100.00;100200.88;2568470;30;137789;-38
2021/11/26 01:51:11;;;;;;;41.60;17.55;;;4.50;99.90;;;2.85;100.00;100211.31;2567638;30;137841;-38
2021/11/26 01:53:40;;;;;;;48.80;18.85;;;4.50;99.90;;;2.82;100.00;100196.34;2569543;30;138488;-38
2021/11/26 01:56:08;;;;;;;47.40;18.65;;;4.50;99.90;;;2.79;100.00;100191.31;2568775;30;138293;-38
2021/11/26 01:58:38;;;;;;;;;;;4.50;99.90;;;2.79;100.00;100188.63;2569129;30;137911;-38
2021/11/26 02:01:09;;;;;;;42.45;17.02;;;4.50;99.90;;;2.82;100.00;100184.72;2570735;30;138318;-38
2021/11/26 02:03:37;;;;;;;42.90;18.05;;;4.50;99.90;;;2.82;100.00;100187.41;2569371;30;138993;-38
2021/11/26 02:06:04;;;;;;;45.45;17.75;;;4.50;99.90;;;2.85;100.00;100190.59;2567859;30;136805;-38
2021/11/26 02:08:32;;;;;;;47.30;18.15;;;4.50;99.90;;;2.85;100.00;100181.66;2572016;30;137351;-38
2021/11/26 02:10:59;;;;;;;44.35;17.63;;;4.60;99.90;;;2.83;100.00;100170.22;2568439;30;137106;-38
2021/11/26 02:13:27;;;;;;;41.53;17.98;;;4.60;99.90;;;2.80;100.00;100171.44;2569420;30;138197;-38
2021/11/26 02:15:54;;;;;;;42.03;17.65;;;4.50;99.90;;;2.88;100.00;100162.44;2569280;30;137112;-38
2021/11/26 02:18:22;;;;;;;38.22;17.10;;;4.60;99.90;;;2.84;100.00;100164.69;2570848;30;137316;-38
2021/11/26 02:20:50;;;;;;;41.92;16.80;;;4.60;99.90;;;2.82;100.00;100155.94;2572078;30;136659;-38
2021/11/26 02:23:17;;;;;;;44.45;17.83;;;4.60;99.90;;;2.80;100.00;100149.03;2565871;30;137476;-38
2021/11/26 02:25:46;;;;;;;43.95;17.35;;;4.50;99.90;;;2.87;100.00;100150.84;2569939;30;137496;-38
2021/11/26 02:28:16;;;;;;;42.00;17.52;;;4.60;99.90;;;2.84;100.00;100153.91;2572361;30;138988;-38
2021/11/26 02:30:45;;;;;;;40.75;17.23;;;4.60;99.90;;;2.82;100.00;100137.06;2570068;30;138699;-38
2021/11/26 02:33:19;;;;;;;42.20;18.40;;;4.60;99.90;;;2.82;100.00;100137.06;2569343;30;139474;-38
2021/11/26 02:35:51;;;;;;;40.75;17.17;;;4.60;99.90;;;2.82;100.00;100125.44;2570333;30;136827;-38
2021/11/26 02:38:22;;;;;;;36.20;15.10;;;4.50;99.90;;;2.80;100.00;100130.19;2566941;30;139099;-38
2021/11/26 02:40:51;;;;;;;37.22;16.65;;;4.50;99.90;;;2.73;100.00;100111.19;2567902;30;137462;-38
2021/11/26 02:43:19;;;;;;;32.25;15.32;;;4.50;99.90;;;2.71;100.00;100114.06;2568419;30;137324;-38
2021/11/26 02:45:47;;;;;;;40.25;17.70;;;4.50;99.90;;;2.73;100.00;100101.25;2570872;30;136904;-38
2021/11/26 02:48:15;;;;;;;37.67;16.35;;;4.50;99.90;;;2.71;100.00;100102.44;2566935;30;138941;-38
2021/11/26 02:50:45;;;;;;;37.70;16.80;;;4.40;99.90;;;2.69;100.00;100097.25;2570112;30;137205;-38
2021/11/26 02:53:13;;;;;;;41.05;15.98;;;4.40;99.90;;;2.71;100.00;100100.59;2568913;30;138222;-38
2021/11/26 02:55:41;;;;;;;;;;;4.50;99.90;;;2.70;100.00;100090.84;2568005;30;137595;-38
2021/11/26 02:58:09;;;;;;;34.38;16.13;;;4.40;99.90;;;2.70;100.00;100082.75;2570253;30;138262;-38
2021/11/26 03:00:41;;;;;;;35.55;16.20;;;4.40;99.90;;;2.68;100.00;100081.25;2576888;30;138461;-40
2021/11/26 03:03:08;;;;;;;32.38;15.45;;;4.40;99.90;;;2.66;100.00;100078.75;2567410;30;138519;-40
2021/11/26 03:05:36;;;;;;;35.50;15.63;;;4.40;99.90;;;2.63;100.00;100073.69;2566531;30;137695;-40
2021/11/26 03:08:05;;;;;;;;;;;4.40;99.90;;;2.62;100.00;100063.13;2568815;30;139119;-40
2021/11/26 03:10:33;;;;;;;38.17;14.50;;;4.40;99.90;;;2.65;100.00;100063.63;2568920;30;137630;-40
2021/11/26 03:13:09;;;;;;;30.77;15.43;;;4.40;99.90;;;2.61;100.00;100053.38;2565788;30;138420;-40
2021/11/26 03:15:42;;;;;;;31.52;14.65;;;4.40;99.90;;;2.59;100.00;100042.75;2567111;30;137665;-40
2021/11/26 03:18:13;;;;;;;34.70;14.80;;;4.40;99.90;;;2.66;100.00;100051.81;2566363;30;139412;-40
2021/11/26 03:20:41;;;;;;;30.00;14.00;;;4.40;99.90;;;2.66;100.00;100053.66;2565226;30;138312;-40
2021/11/26 03:23:09;;;;;;;30.15;14.07;;;4.40;99.90;;;2.62;100.00;100049.66;2568998;30;137163;-40
2021/11/26 03:25:37;;;;;;;31.25;13.63;;;4.40;99.90;;;2.58;100.00;100046.47;2565029;30;137584;-40
2021/11/26 03:28:05;;;;;;;28.75;13.98;;;4.30;99.90;;;2.61;100.00;100043.41;2568865;30;138447;-40
2021/11/26 03:30:32;;;;;;;23.23;12.50;;;4.30;99.90;;;2.58;100.00;100030.31;2567711;30;138237;-40
2021/11/26 03:33:00;;;;;;;30.90;12.82;;;4.40;99.90;;;2.65;100.00;100031.28;2569638;30;137124;-40
2021/11/26 03:35:28;;;;;;;29.02;13.98;;;4.30;99.90;;;2.67;100.00;100023.88;2568172;30;138074;-41
2021/11/26 03:37:56;;;;;;;;;;;4.40;99.90;;;2.64;100.00;100026.06;2568295;30;137108;-40
2021/11/26 03:40:27;;;;;;;24.08;11.93;;;4.40;99.90;;;2.63;100.00;100033.28;2568584;30;137095;-40
2021/11/26 03:42:56;;;;;;;28.75;13.23;;;4.40;99.90;;;2.59;100.00;100018.53;2569046;30;137368;-40
2021/11/26 03:45:28;;;;;;;27.25;12.50;;;4.30;99.90;;;2.68;100.00;100013.91;2566747;30;138426;-40
2021/11/26 03:47:57;;;;;;;24.85;13.07;;;4.40;99.90;;;2.65;100.00;100007.06;2568317;30;138246;-40
2021/11/26 03:50:28;;;;;;;28.30;12.70;;;4.40;99.90;;;2.68;100.00;100000.44;2569086;30;137526;-40
2021/11/26 03:52:56;;;;;;;24.88;11.98;;;4.40;99.90;;;2.66;100.00;99999.78;2568785;30;138525;-40
2021/11/26 03:55:27;;;;;;;25.90;12.63;;;4.40;99.90;;;2.68;100.00;99992.38;2568376;30;138194;-40
2021/11/26 03:57:57;;;;;;;22.52;12.32;;;4.40;99.90;;;2.64;100.00;99989.19;2569307;30;139148;-40
2021/11/26 04:00:26;;;;;;;22.30;11.98;;;4.40;99.90;;;2.64;100.00;99978.41;2567125;30;137476;-40
2021/11/26 04:02:55;;;;;;;25.52;12.25;;;4.40;99.90;;;2.65;100.00;99973.88;2568124;30;139371;-40
2021/11/26 04:05:22;;;;;;;23.88;12.82;;;4.40;99.90;;;2.66;100.00;99980.94;2569293;30;137078;-39
2021/11/26 04:07:50;;;;;;;27.55;13.60;;;4.40;99.90;;;2.65;100.00;99974.72;2565726;30;138057;-40
2021/11/26 04:10:19;;;;;;;26.33;13.05;;;4.40;99.90;;;2.67;100.00;99970.00;2568371;30;137570;-40
2021/11/26 04:12:49;;;;;;;29.85;13.32;;;4.40;99.90;;;2.65;100.00;99965.78;2568630;30;138512;-40
2021/11/26 04:15:18;;;;;;;29.25;13.35;;;4.40;99.90;;;2.66;100.00;99962.09;2568445;30;137683;-40
2021/11/26 04:17:50;;;;;;;29.38;13.90;;;4.40;99.90;;;2.62;100.00;99956.22;2567702;30;137129;-40
2021/11/26 04:20:19;;;;;;;25.55;12.93;;;4.40;99.90;;;2.61;100.00;99946.47;2568882;30;137876;-40
2021/11/26 04:22:47;;;;;;;30.10;13.75;;;4.40;99.90;;;2.62;100.00;99947.31;2565921;30;138674;-40
2021/11/26 04:25:17;;;;;;;;;;;4.40;99.90;;;2.65;100.00;99936.16;2568401;30;136687;-40
2021/11/26 04:27:44;;;;;;;;;;;4.40;99.90;;;2.68;100.00;99925.88;2569022;30;137115;-40
2021/11/26 04:30:14;;;;;;;29.13;13.60;;;4.40;99.90;;;2.66;100.00;99919.84;2569973;30;136578;-40
2021/11/26 04:32:42;;;;;;;28.33;14.27;;;4.40;99.90;;;2.67;100.00;99916.13;2567946;30;138416;-40
2021/11/26 04:35:11;;;;;;;25.92;13.32;;;4.40;99.90;;;2.66;100.00;99911.75;2568358;30;138335;-40
2021/11/26 04:37:39;;;;;;;33.35;15.68;;;4.40;99.90;;;2.68;100.00;99900.78;2567949;30;138197;-40
2021/11/26 04:40:12;;;;;;;34.28;14.48;;;4.40;99.90;;;2.70;100.00;99899.59;2569364;30;137674;-40
2021/11/26 04:42:42;;;;;;;31.38;15.18;;;4.40;99.90;;;2.70;100.00;99896.91;2568458;30;138333;-40
2021/11/26 04:45:13;;;;;;;29.27;14.23;;;4.40;99.90;;;2.73;100.00;99890.28;2568687;30;138580;-40
2021/11/26 04:47:41;;;;;;;31.63;14.18;;;4.40;99.90;;;2.72;100.00;99880.53;2567867;30;138935;-40
2021/11/26 04:50:13;;;;;;;29.65;14.32;;;4.50;99.90;;;2.71;100.00;99877.03;2567800;30;137627;-39
2021/11/26 04:52:40;;;;;;;30.88;14.38;;;4.40;99.90;;;2.76;100.00;99878.31;2566588;30;138439;-40
2021/11/26 04:55:11;;;;;;;31.05;14.05;;;4.50;99.90;;;2.73;100.00;99879.50;2566604;30;137580;-40
2021/11/26 04:57:39;;;;;;;33.00;15.05;;;4.50;99.90;;;2.75;100.00;99866.69;2568285;30;138356;-40
2021/11/26 05:00:08;;;;;;;30.35;14.73;;;4.50;99.90;;;2.70;100.00;99869.09;2568736;30;137435;-40
2021/11/26 05:02:36;;;;;;;28.23;14.50;;;4.40;99.90;;;2.76;100.00;99857.59;2565995;30;138220;-40
2021/11/26 05:05:04;;;;;;;;;;;4.50;99.90;;;2.77;100.00;99859.25;2565026;30;138477;-40
2021/11/26 05:07:31;;;;;;;31.63;14.30;;;4.50;99.90;;;2.75;100.00;99855.09;2569632;30;138565;-40
2021/11/26 05:10:01;;;;;;;28.08;14.02;;;4.50;99.90;;;2.73;100.00;99848.03;2567601;30;137543;-40
2021/11/26 05:12:39;;;;;;;33.78;15.60;;;4.50;99.90;;;2.81;100.00;99844.44;2565952;30;137251;-40
2021/11/26 05:15:08;;;;;;;33.60;15.33;;;4.50;99.90;;;2.82;100.00;99837.16;2567916;30;137024;-40
2021/11/26 05:17:36;;;;;;;28.70;14.75;;;4.50;99.90;;;2.86;100.00;99841.16;2567861;30;138273;-40
2021/11/26 05:20:05;;;;;;;26.58;13.52;;;4.60;99.90;;;2.92;100.00;99839.56;2568304;30;137026;-40
2021/11/26 05:22:35;;;;;;;25.45;13.57;;;4.60;99.90;;;2.89;100.00;99830.00;2565696;30;138704;-40
2021/11/26 05:25:03;;;;;;;27.75;14.10;;;4.60;99.90;;;2.88;100.00;99828.31;2567583;30;137859;-40
2021/11/26 05:27:31;;;;;;;;;;;4.60;99.90;;;2.88;100.00;99823.78;2567633;30;138387;-40
2021/11/26 05:29:58;;;;;;;31.38;13.73;;;4.60;99.90;;;2.72;100.00;99810.50;2568762;30;137367;-40
2021/11/26 05:32:26;;;;;;;31.80;13.93;;;4.60;99.90;;;2.87;100.00;99821.28;2566037;30;138449;-40
2021/11/26 05:34:53;;;;;;;27.67;13.75;;;4.60;99.90;;;2.88;100.00;99822.94;2568097;30;137897;-39
2021/11/26 05:37:21;;;;;;;28.08;14.40;;;4.60;99.90;;;2.90;100.00;99818.19;2567423;30;139057;-40
2021/11/26 05:39:48;;;;;;;29.48;14.32;;;4.60;99.90;;;2.97;100.00;99821.84;2568865;30;137822;-39
2021/11/26 05:42:16;;;;;;;27.38;14.02;;;4.70;99.90;;;2.91;100.00;99814.47;2567425;30;139029;-40
2021/11/26 05:44:44;;;;;;;27.55;13.43;;;4.60;99.90;;;2.88;100.00;99813.00;2568231;30;138331;-39
2021/11/26 05:47:12;;;;;;;27.27;12.95;;;4.60;99.90;;;2.90;100.00;99812.81;2567439;30;138211;-40
2021/11/26 05:49:39;;;;;;;;;;;4.60;99.90;;;2.94;100.00;99802.50;2568718;30;136779;-40
2021/11/26 05:52:07;;;;;;;26.20;12.95;;;4.60;99.90;;;2.91;100.00;99806.41;2568183;30;137763;-40
2021/11/26 05:54:37;;;;;;;28.75;14.70;;;4.60;99.90;;;2.90;100.00;99799.34;2568414;30;136682;-40
2021/11/26 05:57:05;;;;;;;25.90;13.90;;;4.60;99.90;;;2.84;100.00;99806.34;2565055;30;138256;-40
2021/11/26 05:59:32;;;;;;;28.35;14.77;;;4.60;99.90;;;2.88;100.00;99801.38;2566355;30;137537;-40
2021/11/26 06:02:00;;;;;;;30.33;14.38;;;4.60;99.90;;;2.91;100.00;99789.41;2569403;30;137325;-39
2021/11/26 06:04:31;;;;;;;31.35;14.20;;;4.60;99.90;;;2.88;100.00;99790.59;2567201;30;137942;-40
2021/11/26 06:06:59;;;;;;;24.27;13.55;;;4.60;99.90;;;2.87;100.00;99786.25;2566859;30;138380;-40
2021/11/26 06:09:27;;;;;;;27.70;13.73;;;4.60;99.90;;;2.87;100.00;99789.78;2568310;30;137741;-40
2021/11/26 06:11:54;;;;;;;29.60;13.38;;;4.60;99.90;;;2.88;100.00;99779.81;2567646;30;137237;-40
2021/11/26 06:14:22;;;;;;;28.17;14.52;;;4.60;99.90;;;2.93;100.00;99782.81;2567508;30;137488;-39
2021/11/26 06:16:49;;;;;;;26.15;13.93;;;4.60;99.90;;;2.93;100.00;99782.81;2568246;30;138438;-40
2021/11/26 06:19:17;;;;;;;27.90;13.63;;;4.60;99.90;;;2.88;100.00;99775.28;2566751;30;137673;-40
2021/11/26 06:21:45;;;;;;;29.08;14.18;;;4.60;99.90;;;2.95;100.00;99770.00;2568089;30;137460;-40
2021/11/26 06:24:12;;;;;;;31.42;13.70;;;4.60;99.90;;;2.92;100.00;99764.13;2566488;30;137431;-40
2021/11/26 06:26:40;;;;;;;22.48;13.68;;;4.60;99.90;;;2.91;100.00;99757.91;2568318;30;137380;-40
2021/11/26 06:29:08;;;;;;;24.33;13.52;;;4.60;99.90;;;2.92;100.00;99748.81;2566290;30;137535;-40
2021/11/26 06:31:35;;;;;;;27.30;13.48;;;4.60;99.90;;;2.91;100.00;99757.91;2567517;30;139288;-40
2021/11/26 06:34:03;;;;;;;23.70;12.55;;;4.60;99.90;;;2.94;100.00;99760.25;2566831;30;137253;-40
2021/11/26 06:36:32;;;;;;;24.13;11.98;;;4.70;99.90;;;2.95;100.00;99752.97;2568252;30;137887;-40
2021/11/26 06:39:02;;;;;;;24.25;12.82;;;4.60;99.90;;;2.94;100.00;99744.06;2568379;30;137615;-39
2021/11/26 06:41:30;;;;;;;21.83;12.48;;;4.70;99.90;;;2.99;100.00;99736.25;2568993;30;139108;-40
2021/11/26 06:43:58;;;;;;;23.55;12.77;;;4.70;99.90;;;2.95;100.00;99740.34;2567643;30;137391;-40
2021/11/26 06:46:26;;;;;;;26.10;13.18;;;4.70;99.90;;;3.01;100.00;99731.50;2566017;30;137422;-39
2021/11/26 06:48:54;;;;;;;24.10;12.57;;;4.70;99.90;;;2.97;100.00;99724.81;2568438;30;136686;-39
2021/11/26 06:51:22;;;;;;;23.10;12.95;;;4.70;99.90;;;3.01;100.00;99722.56;2566805;30;137828;-39
2021/11/26 06:53:49;;;;;;;25.55;12.45;;;4.70;99.90;;;2.95;100.00;99715.25;2567681;30;137595;-40
2021/11/26 06:56:17;;;;;;;21.70;11.63;;;4.70;99.90;;;2.96;100.00;99711.53;2566812;30;137826;-40
2021/11/26 06:58:44;;;;;;;24.65;12.65;;;4.70;99.90;;;2.91;100.00;99704.00;2568438;30;137532;-40
2021/11/26 07:01:12;;;;;;;20.63;12.02;;;4.60;99.90;;;2.94;100.00;99703.66;2564846;30;137411;-40
2021/11/26 07:03:40;;;;;;;23.70;11.45;;;4.70;99.90;;;2.89;100.00;99711.44;2567684;30;137547;-40
2021/11/26 07:06:07;;;;;;;22.75;12.02;;;4.60;99.90;;;2.90;100.00;99696.94;2566526;30;139112;-40
2021/11/26 07:08:35;;;;;;;21.88;12.20;;;4.60;99.90;;;2.90;100.00;99702.34;2568074;30;137614;-40
2021/11/26 07:11:03;;;;;;;20.13;11.70;;;4.60;99.90;;;2.90;100.00;99694.25;2565731;30;138787;-40
2021/11/26 07:13:30;;;;;;;22.45;13.00;;;4.60;99.90;;;3.00;100.00;99685.88;2567194;30;137617;-40
2021/11/26 07:15:58;;;;;;;23.77;12.30;;;4.70;99.90;;;2.99;100.00;99679.66;2567597;30;138553;-40
2021/11/26 07:18:26;;;;;;;;;;;4.70;99.90;;;2.92;100.00;99667.97;2566087;30;137589;-40
2021/11/26 07:20:53;;;;;;;20.70;10.70;;;4.70;99.90;;;2.87;100.00;99673.94;2568781;30;138338;-39
2021/11/26 07:23:21;;;;;;;20.00;11.07;;;4.60;99.90;;;2.87;100.00;99670.38;2567593;30;136705;-40
2021/11/26 07:25:49;;;;;;;21.02;10.85;;;4.60;99.90;;;2.85;100.00;99662.50;2568144;30;137941;-40
2021/11/26 07:28:17;;;;;;;17.65;9.98;;;4.60;99.90;;;2.91;100.00;99665.47;2568610;30;137359;-40
2021/11/26 07:30:45;;;;;;;;;;;4.60;99.90;;;2.86;100.00;99672.25;2568647;30;137780;-40
2021/11/26 07:33:12;;;;;;;18.25;10.73;;;4.60;99.90;;;2.86;100.00;99668.72;2569017;30;137248;-40
2021/11/26 07:35:40;;;;;;;19.85;10.55;;;4.60;99.90;;;2.88;100.00;99667.50;2566039;30;138646;-40
2021/11/26 07:38:08;;;;;;;18.02;10.18;;;4.60;99.90;;;2.90;100.00;99674.56;2565839;30;137291;-40
2021/11/26 07:40:36;;;;;;;14.35;8.95;;;4.60;99.90;;;2.91;100.00;99663.59;2567168;30;137205;-40
2021/11/26 07:43:03;;;;;;;;;;;4.60;99.90;;;2.97;100.00;99667.38;2567353;30;138480;-40
2021/11/26 07:45:32;;;;;;;18.33;8.93;;;4.70;99.90;;;3.00;100.00;99667.00;2567548;30;138441;-40
2021/11/26 07:47:59;;;;;;;13.82;7.97;;;4.70;99.90;;;3.01;100.00;99665.97;2567491;30;137534;-40
2021/11/26 07:50:28;;;;;;;18.63;8.20;;;4.70;99.90;;;3.04;100.00;99662.06;2567925;30;138359;-40
2021/11/26 07:52:57;;;;;;;15.38;7.85;;;4.70;99.90;;;3.01;100.00;99639.88;2568409;30;137658;-40
2021/11/26 07:55:25;;;;;;;19.40;8.52;;;4.80;99.90;;;3.10;100.00;99648.69;2567090;30;137885;-40
2021/11/26 07:57:53;;;;;;;13.02;7.47;;;4.80;99.90;;;3.02;100.00;99648.78;2566378;30;137646;-40
2021/11/26 08:00:20;;;;;;;19.08;8.00;;;4.70;99.90;;;3.05;100.00;99639.50;2567717;30;137115;-40
2021/11/26 08:02:48;;;;;;;14.75;8.32;;;4.80;99.90;;;3.07;100.00;99632.91;2564522;30;137625;-39
2021/11/26 08:05:16;;;;;;;16.70;8.45;;;4.70;99.90;;;3.08;100.00;99628.31;2568002;30;138307;-40
2021/11/26 08:07:43;;;;;;;13.55;7.88;;;4.80;99.90;;;3.02;100.00;99625.38;2567278;30;137392;-40
2021/11/26 08:10:12;;;;;;;15.25;8.63;;;4.80;99.90;;;3.01;100.00;99628.25;2567737;30;138373;-40
2021/11/26 08:12:41;;;;;;;18.63;8.55;;;4.70;99.90;;;3.05;100.00;99617.94;2568045;30;138172;-40
2021/11/26 08:15:12;;;;;;;18.48;9.18;;;4.80;99.90;;;3.07;100.00;99614.03;2569259;30;138506;-40
2021/11/26 08:17:40;;;;;;;18.17;8.32;;;4.80;99.90;;;3.09;100.00;99606.59;2568764;30;137351;-40
2021/11/26 08:20:09;;;;;;;19.23;9.65;;;4.80;99.90;;;3.11;100.00;99601.84;2567551;30;138412;-39
2021/11/26 08:22:47;;;;;;;17.52;9.50;;;4.80;99.90;;;3.17;100.00;99594.81;2568969;30;136780;-40
2021/11/26 08:25:18;;;;;;;17.17;8.82;;;4.80;99.90;;;3.15;100.00;99586.09;2568287;30;138605;-40
2021/11/26 08:27:47;;;;;;;20.75;10.15;;;4.80;99.90;;;3.14;100.00;99582.56;2568444;30;138737;-40
2021/11/26 08:30:15;;;;;;;21.75;10.70;;;4.80;99.90;;;3.16;100.00;99582.34;2568727;30;139020;-39
2021/11/26 08:32:43;;;;;;;;;;;4.80;99.90;;;3.21;100.00;99579.09;2567306;30;136841;-40
2021/11/26 08:35:11;;;;;;;22.33;9.60;;;4.90;99.90;;;3.18;100.00;99577.59;2567942;30;138969;-40
2021/11/26 08:37:38;;;;;;;22.20;9.98;;;4.90;99.90;;;3.27;100.00;99562.97;2567620;30;138512;-39
2021/11/26 08:40:08;;;;;;;20.58;10.38;;;4.90;99.90;;;3.26;100.00;99568.56;2568509;30;139289;-40
2021/11/26 08:42:36;;;;;;;22.13;10.13;;;4.90;99.90;;;3.26;100.00;99563.16;2567890;30;137652;-40
2021/11/26 08:45:05;;;;;;;;;;;5.00;99.90;;;3.27;100.00;99556.75;2565407;30;138426;-40
2021/11/26 08:47:34;;;;;;;24.17;9.70;;;5.00;99.90;;;3.21;100.00;99542.19;2569199;30;137040;-40
2021/11/26 08:50:02;;;;;;;20.80;9.82;;;5.00;99.90;;;3.28;100.00;99553.84;2568412;30;139351;-40
2021/11/26 08:52:31;;;;;;;20.60;9.50;;;5.00;99.90;;;3.27;100.00;99548.66;2568316;30;136925;-40
2021/11/26 08:54:58;;;;;;;18.48;9.32;;;5.00;99.90;;;3.30;100.00;99541.00;2568165;30;138968;-40
2021/11/26 08:57:28;;;;;;;22.10;9.20;;;5.00;99.90;;;3.30;100.00;99540.16;2568947;30;137635;-40
2021/11/26 08:59:56;;;;;;;17.70;9.13;;;5.00;99.90;;;3.29;100.00;99533.97;2568667;30;137625;-40
2021/11/26 09:02:23;;;;;;;18.90;9.63;;;5.00;99.90;;;3.25;100.00;99535.38;2575742;30;137383;-38
2021/11/26 09:04:51;;;;;;;21.75;9.20;;;5.00;99.90;;;3.28;100.00;99526.91;2569471;30;138457;-39
2021/11/26 09:07:19;;;;;;;17.52;7.75;;;5.00;99.90;;;3.31;100.00;99531.91;2569586;30;136807;-38
2021/11/26 09:09:46;;;;;;;21.63;9.27;;;5.00;99.90;;;3.31;100.00;99521.09;2568351;30;137248;-38
2021/11/26 09:12:14;;;;;;;16.73;8.45;;;5.00;99.90;;;3.34;100.00;99524.44;2570725;30;137745;-38
2021/11/26 09:14:42;;;;;;;14.98;8.75;;;5.00;99.90;;;3.38;100.00;99515.78;2570313;30;139113;-38
2021/11/26 09:17:09;;;;;;;21.17;9.52;;;5.00;99.90;;;3.39;100.00;99517.44;2566964;30;138191;-38
2021/11/26 09:19:38;;;;;;;17.23;8.02;;;5.10;99.90;;;3.41;100.00;99519.91;2569082;30;139007;-38
2021/11/26 09:22:05;;;;;;;20.88;8.15;;;5.10;99.90;;;3.43;100.00;99517.84;2569169;30;137820;-38
2021/11/26 09:24:33;;;;;;;17.88;7.63;;;5.10;99.90;;;3.38;100.00;99514.91;2569599;30;138366;-38
2021/11/26 09:27:00;;;;;;;18.52;8.32;;;5.10;99.90;;;3.44;100.00;99514.97;2569089;30;140460;-38
2021/11/26 09:29:28;;;;;;;19.25;7.68;;;5.10;99.90;;;3.42;100.00;99505.41;2567000;30;137101;-38
2021/11/26 09:31:56;;;;;;;16.95;7.10;;;5.10;99.90;;;3.40;100.00;99504.78;2571155;30;136716;-38
2021/11/26 09:34:24;;;;;;;17.48;6.72;;;5.10;99.90;;;3.41;100.00;99495.66;2569804;30;138414;-38
2021/11/26 09:36:52;;;;;;;19.48;7.22;;;5.20;99.90;;;3.46;100.00;99498.59;2569067;30;136854;-38
2021/11/26 09:39:20;;;;;;;20.95;8.15;;;5.10;99.90;;;3.49;100.00;99500.06;2568743;30;138830;-38
2021/11/26 09:41:48;;;;;;;20.08;7.55;;;5.10;99.90;;;3.51;100.00;99500.69;2566990;30;137689;-38
2021/11/26 09:44:17;;;;;;;18.77;7.50;;;5.20;99.90;;;3.49;100.00;99498.22;2569869;30;137323;-37
2021/11/26 09:46:47;;;;;;;17.52;7.95;;;5.20;99.90;;;3.53;100.00;99499.47;2569481;30;136977;-38
2021/11/26 09:49:16;;;;;;;17.85;7.32;;;5.20;99.90;;;3.53;100.00;99483.28;2568509;30;137448;-38
2021/11/26 09:51:44;;;;;;;19.40;7.68;;;5.20;99.90;;;3.53;100.00;99494.06;2570468;30;136905;-38
2021/11/26 09:54:12;;;;;;;16.98;7.32;;;5.20;99.90;;;3.53;100.00;99477.06;2565073;30;138461;-38
2021/11/26 09:56:39;;;;;;;20.17;7.97;;;5.20;99.90;;;3.56;100.00;99474.81;2567951;30;137051;-38
2021/11/26 09:59:08;;;;;;;21.33;8.52;;;5.20;99.90;;;3.56;100.00;99464.00;2570915;30;137470;-38
2021/11/26 10:01:36;;;;;;;22.30;8.75;;;5.20;99.90;;;3.58;100.00;99469.19;2568306;30;138034;-38
2021/11/26 10:04:20;;;;;;;19.42;8.30;;;5.20;99.90;;;3.57;100.00;99467.53;2569037;30;137207;-38
2021/11/26 10:06:49;;;;;;;20.65;8.77;;;5.20;99.90;;;3.57;100.00;99451.34;2568412;30;138574;-38
2021/11/26 10:09:22;;;;;;;18.35;8.32;;;5.20;99.90;;;3.57;100.00;99449.50;2571674;30;138307;-38
2021/11/26 10:12:02;;;;;;;23.42;8.98;;;5.30;99.90;;;3.59;100.00;99442.03;2569878;30;138492;-38
2021/11/26 10:14:34;;;;;;;19.73;8.73;;;5.30;99.90;;;3.59;100.00;99430.44;2570471;30;138285;-38
2021/11/26 10:17:19;;;;;;;20.63;8.63;;;5.30;99.90;;;3.58;100.00;99426.88;2569185;30;137584;-38